sensor_id;sensor_type;location;lat;lon;timestamp;P1;durP1;ratioP1;P2;durP2;ratioP2
3095;SDS011;1558;42.700;23.360;2023-05-13T00:00:27;3.80;;;3.60;;
3095;SDS011;1558;42.700;23.360;2023-05-13T00:02:55;3.43;;;3.23;;
3095;SDS011;1558;42.700;23.360;2023-05-13T00:05:23;3.40;;;3.30;;
3095;SDS011;1558;42.700;23.360;2023-05-13T00:07:53;3.37;;;3.17;;
3095;SDS011;1558;42.700;23.360;2023-05-13T00:10:21;3.47;;;3.27;;
3095;SDS011;1558;42.700;23.360;2023-05-13T00:12:50;3.17;;;3.07;;
3095;SDS011;1558;42.700;23.360;2023-05-13T00:15:20;3.63;;;3.43;;
3095;SDS011;1558;42.700;23.360;2023-05-13T00:17:48;2.87;;;2.70;;
3095;SDS011;1558;42.700;23.360;2023-05-13T00:20:16;3.63;;;3.43;;
3095;SDS011;1558;42.700;23.360;2023-05-13T00:22:45;3.17;;;3.03;;
3095;SDS011;1558;42.700;23.360;2023-05-13T00:25:13;2.87;;;2.73;;
3095;SDS011;1558;42.700;23.360;2023-05-13T00:27:41;2.70;;;2.60;;
3095;SDS011;1558;42.700;23.360;2023-05-13T00:30:09;3.63;;;3.43;;
3095;SDS011;1558;42.700;23.360;2023-05-13T00:32:40;2.40;;;2.30;;
3095;SDS011;1558;42.700;23.360;2023-05-13T00:35:08;0.97;;;0.97;;
3095;SDS011;1558;42.700;23.360;2023-05-13T00:37:36;1.17;;;1.13;;
3095;SDS011;1558;42.700;23.360;2023-05-13T00:40:05;1.30;;;1.20;;
3095;SDS011;1558;42.700;23.360;2023-05-13T00:42:42;1.30;;;1.10;;
3095;SDS011;1558;42.700;23.360;2023-05-13T00:45:10;1.80;;;1.40;;
3095;SDS011;1558;42.700;23.360;2023-05-13T00:47:40;1.33;;;1.23;;
3095;SDS011;1558;42.700;23.360;2023-05-13T00:50:09;1.43;;;1.33;;
3095;SDS011;1558;42.700;23.360;2023-05-13T00:52:38;1.63;;;1.20;;
3095;SDS011;1558;42.700;23.360;2023-05-13T00:55:08;1.67;;;1.57;;
3095;SDS011;1558;42.700;23.360;2023-05-13T00:57:36;0.90;;;0.90;;
3095;SDS011;1558;42.700;23.360;2023-05-13T01:00:05;2.60;;;1.10;;
3095;SDS011;1558;42.700;23.360;2023-05-13T01:02:38;1.27;;;1.00;;
3095;SDS011;1558;42.700;23.360;2023-05-13T01:05:25;2.60;;;1.90;;
3095;SDS011;1558;42.700;23.360;2023-05-13T01:07:59;1.17;;;1.03;;
3095;SDS011;1558;42.700;23.360;2023-05-13T01:10:35;1.30;;;1.20;;
3095;SDS011;1558;42.700;23.360;2023-05-13T01:13:10;1.80;;;1.20;;
3095;SDS011;1558;42.700;23.360;2023-05-13T01:15:41;2.20;;;1.70;;
3095;SDS011;1558;42.700;23.360;2023-05-13T01:18:17;1.23;;;1.13;;
3095;SDS011;1558;42.700;23.360;2023-05-13T01:20:47;1.83;;;1.27;;
3095;SDS011;1558;42.700;23.360;2023-05-13T01:23:16;1.53;;;1.43;;
3095;SDS011;1558;42.700;23.360;2023-05-13T01:25:44;1.00;;;1.00;;
3095;SDS011;1558;42.700;23.360;2023-05-13T01:28:13;1.90;;;1.73;;
3095;SDS011;1558;42.700;23.360;2023-05-13T01:30:41;0.70;;;0.70;;
3095;SDS011;1558;42.700;23.360;2023-05-13T01:33:09;1.00;;;1.00;;
3095;SDS011;1558;42.700;23.360;2023-05-13T01:35:38;1.27;;;1.17;;
3095;SDS011;1558;42.700;23.360;2023-05-13T01:38:06;2.67;;;0.90;;
3095;SDS011;1558;42.700;23.360;2023-05-13T01:40:38;3.47;;;1.10;;
3095;SDS011;1558;42.700;23.360;2023-05-13T01:43:06;1.03;;;0.93;;
3095;SDS011;1558;42.700;23.360;2023-05-13T01:45:34;0.93;;;0.93;;
3095;SDS011;1558;42.700;23.360;2023-05-13T01:48:03;1.30;;;1.20;;
3095;SDS011;1558;42.700;23.360;2023-05-13T01:50:32;1.23;;;0.77;;
3095;SDS011;1558;42.700;23.360;2023-05-13T01:53:00;1.13;;;1.07;;
3095;SDS011;1558;42.700;23.360;2023-05-13T01:55:28;0.97;;;0.97;;
3095;SDS011;1558;42.700;23.360;2023-05-13T01:57:57;0.77;;;0.77;;
3095;SDS011;1558;42.700;23.360;2023-05-13T02:00:25;7.00;;;6.03;;
3095;SDS011;1558;42.700;23.360;2023-05-13T02:02:53;5.47;;;4.97;;
3095;SDS011;1558;42.700;23.360;2023-05-13T02:05:22;7.00;;;5.40;;
3095;SDS011;1558;42.700;23.360;2023-05-13T02:07:50;6.13;;;5.63;;
3095;SDS011;1558;42.700;23.360;2023-05-13T02:10:18;7.00;;;6.23;;
3095;SDS011;1558;42.700;23.360;2023-05-13T02:12:46;7.37;;;5.90;;
3095;SDS011;1558;42.700;23.360;2023-05-13T02:15:15;7.83;;;6.60;;
3095;SDS011;1558;42.700;23.360;2023-05-13T02:17:43;7.33;;;6.63;;
3095;SDS011;1558;42.700;23.360;2023-05-13T02:20:12;8.80;;;6.20;;
3095;SDS011;1558;42.700;23.360;2023-05-13T02:22:41;6.90;;;5.93;;
3095;SDS011;1558;42.700;23.360;2023-05-13T02:25:09;8.07;;;5.70;;
3095;SDS011;1558;42.700;23.360;2023-05-13T02:27:37;7.50;;;5.20;;
3095;SDS011;1558;42.700;23.360;2023-05-13T02:30:06;5.40;;;4.90;;
3095;SDS011;1558;42.700;23.360;2023-05-13T02:32:36;7.17;;;4.80;;
3095;SDS011;1558;42.700;23.360;2023-05-13T02:35:08;4.80;;;4.30;;
3095;SDS011;1558;42.700;23.360;2023-05-13T02:37:37;6.70;;;4.40;;
3095;SDS011;1558;42.700;23.360;2023-05-13T02:40:05;4.57;;;4.17;;
3095;SDS011;1558;42.700;23.360;2023-05-13T02:42:34;5.67;;;4.50;;
3095;SDS011;1558;42.700;23.360;2023-05-13T02:45:02;5.07;;;4.50;;
3095;SDS011;1558;42.700;23.360;2023-05-13T02:47:30;5.10;;;4.63;;
3095;SDS011;1558;42.700;23.360;2023-05-13T02:50:00;6.07;;;5.07;;
3095;SDS011;1558;42.700;23.360;2023-05-13T02:52:31;5.17;;;4.43;;
3095;SDS011;1558;42.700;23.360;2023-05-13T02:55:00;6.30;;;4.30;;
3095;SDS011;1558;42.700;23.360;2023-05-13T02:57:28;5.37;;;4.10;;
3095;SDS011;1558;42.700;23.360;2023-05-13T02:59:56;4.47;;;3.87;;
3095;SDS011;1558;42.700;23.360;2023-05-13T03:02:25;5.30;;;4.80;;
3095;SDS011;1558;42.700;23.360;2023-05-13T03:04:53;4.53;;;4.07;;
3095;SDS011;1558;42.700;23.360;2023-05-13T03:07:23;5.40;;;4.60;;
3095;SDS011;1558;42.700;23.360;2023-05-13T03:09:51;5.77;;;4.50;;
3095;SDS011;1558;42.700;23.360;2023-05-13T03:12:19;4.93;;;4.50;;
3095;SDS011;1558;42.700;23.360;2023-05-13T03:14:47;5.27;;;4.50;;
3095;SDS011;1558;42.700;23.360;2023-05-13T03:17:15;4.83;;;4.40;;
3095;SDS011;1558;42.700;23.360;2023-05-13T03:19:44;4.60;;;4.20;;
3095;SDS011;1558;42.700;23.360;2023-05-13T03:22:12;4.50;;;4.10;;
3095;SDS011;1558;42.700;23.360;2023-05-13T03:24:41;5.00;;;4.47;;
3095;SDS011;1558;42.700;23.360;2023-05-13T03:27:10;5.23;;;4.30;;
3095;SDS011;1558;42.700;23.360;2023-05-13T03:29:39;5.63;;;4.00;;
3095;SDS011;1558;42.700;23.360;2023-05-13T03:32:11;5.10;;;4.30;;
3095;SDS011;1558;42.700;23.360;2023-05-13T03:34:44;6.00;;;4.50;;
3095;SDS011;1558;42.700;23.360;2023-05-13T03:37:18;5.17;;;4.23;;
3095;SDS011;1558;42.700;23.360;2023-05-13T03:39:48;4.83;;;3.80;;
3095;SDS011;1558;42.700;23.360;2023-05-13T03:42:16;4.87;;;3.47;;
3095;SDS011;1558;42.700;23.360;2023-05-13T03:44:44;3.40;;;3.07;;
3095;SDS011;1558;42.700;23.360;2023-05-13T03:47:15;4.73;;;3.87;;
3095;SDS011;1558;42.700;23.360;2023-05-13T03:49:43;3.67;;;3.20;;
3095;SDS011;1558;42.700;23.360;2023-05-13T03:52:13;4.33;;;3.93;;
3095;SDS011;1558;42.700;23.360;2023-05-13T03:54:42;6.40;;;5.33;;
3095;SDS011;1558;42.700;23.360;2023-05-13T03:57:12;5.70;;;4.60;;
3095;SDS011;1558;42.700;23.360;2023-05-13T03:59:40;5.37;;;4.87;;
3095;SDS011;1558;42.700;23.360;2023-05-13T04:02:08;5.47;;;4.57;;
3095;SDS011;1558;42.700;23.360;2023-05-13T04:04:40;5.77;;;4.77;;
3095;SDS011;1558;42.700;23.360;2023-05-13T04:07:10;5.37;;;4.87;;
3095;SDS011;1558;42.700;23.360;2023-05-13T04:09:41;5.47;;;4.70;;
3095;SDS011;1558;42.700;23.360;2023-05-13T04:12:09;5.73;;;5.23;;
3095;SDS011;1558;42.700;23.360;2023-05-13T04:14:42;5.87;;;5.27;;
3095;SDS011;1558;42.700;23.360;2023-05-13T04:17:10;6.33;;;5.70;;
3095;SDS011;1558;42.700;23.360;2023-05-13T04:19:38;7.30;;;6.10;;
3095;SDS011;1558;42.700;23.360;2023-05-13T04:22:06;10.33;;;6.97;;
3095;SDS011;1558;42.700;23.360;2023-05-13T04:24:34;10.10;;;6.70;;
3095;SDS011;1558;42.700;23.360;2023-05-13T04:27:02;7.07;;;5.20;;
3095;SDS011;1558;42.700;23.360;2023-05-13T04:29:31;7.80;;;5.00;;
3095;SDS011;1558;42.700;23.360;2023-05-13T04:32:00;6.97;;;4.93;;
3095;SDS011;1558;42.700;23.360;2023-05-13T04:34:29;6.10;;;5.37;;
3095;SDS011;1558;42.700;23.360;2023-05-13T04:36:57;8.80;;;6.00;;
3095;SDS011;1558;42.700;23.360;2023-05-13T04:39:25;9.07;;;6.37;;
3095;SDS011;1558;42.700;23.360;2023-05-13T04:41:53;9.13;;;6.37;;
3095;SDS011;1558;42.700;23.360;2023-05-13T04:44:25;9.40;;;6.87;;
3095;SDS011;1558;42.700;23.360;2023-05-13T04:46:55;6.77;;;5.47;;
3095;SDS011;1558;42.700;23.360;2023-05-13T04:49:26;9.67;;;6.23;;
3095;SDS011;1558;42.700;23.360;2023-05-13T04:52:00;8.33;;;6.37;;
3095;SDS011;1558;42.700;23.360;2023-05-13T04:54:29;13.70;;;7.43;;
3095;SDS011;1558;42.700;23.360;2023-05-13T04:57:00;8.27;;;6.00;;
3095;SDS011;1558;42.700;23.360;2023-05-13T04:59:33;10.73;;;7.00;;
3095;SDS011;1558;42.700;23.360;2023-05-13T05:02:02;9.17;;;6.87;;
3095;SDS011;1558;42.700;23.360;2023-05-13T05:04:34;7.37;;;5.97;;
3095;SDS011;1558;42.700;23.360;2023-05-13T05:07:10;10.83;;;6.83;;
3095;SDS011;1558;42.700;23.360;2023-05-13T05:09:38;10.43;;;6.80;;
3095;SDS011;1558;42.700;23.360;2023-05-13T05:12:12;9.43;;;7.20;;
3095;SDS011;1558;42.700;23.360;2023-05-13T05:14:41;9.27;;;6.83;;
3095;SDS011;1558;42.700;23.360;2023-05-13T05:17:09;10.37;;;6.73;;
3095;SDS011;1558;42.700;23.360;2023-05-13T05:19:39;13.67;;;7.50;;
3095;SDS011;1558;42.700;23.360;2023-05-13T05:22:07;8.27;;;5.80;;
3095;SDS011;1558;42.700;23.360;2023-05-13T05:24:35;10.07;;;7.13;;
3095;SDS011;1558;42.700;23.360;2023-05-13T05:27:03;9.93;;;7.20;;
3095;SDS011;1558;42.700;23.360;2023-05-13T05:29:32;7.53;;;4.20;;
3095;SDS011;1558;42.700;23.360;2023-05-13T05:32:00;8.20;;;5.15;;
3095;SDS011;1558;42.700;23.360;2023-05-13T05:34:29;7.28;;;5.72;;
3095;SDS011;1558;42.700;23.360;2023-05-13T05:36:58;9.60;;;6.55;;
3095;SDS011;1558;42.700;23.360;2023-05-13T05:39:26;11.45;;;6.40;;
3095;SDS011;1558;42.700;23.360;2023-05-13T05:41:55;11.83;;;6.90;;
3095;SDS011;1558;42.700;23.360;2023-05-13T05:44:23;8.75;;;6.43;;
3095;SDS011;1558;42.700;23.360;2023-05-13T05:46:51;5.80;;;5.20;;
3095;SDS011;1558;42.700;23.360;2023-05-13T05:49:19;8.25;;;6.15;;
3095;SDS011;1558;42.700;23.360;2023-05-13T05:51:47;11.25;;;5.78;;
3095;SDS011;1558;42.700;23.360;2023-05-13T05:54:17;7.57;;;4.47;;
3095;SDS011;1558;42.700;23.360;2023-05-13T05:56:45;6.30;;;4.80;;
3095;SDS011;1558;42.700;23.360;2023-05-13T05:59:13;8.35;;;4.68;;
3095;SDS011;1558;42.700;23.360;2023-05-13T06:01:41;15.82;;;5.15;;
3095;SDS011;1558;42.700;23.360;2023-05-13T06:04:09;11.32;;;4.78;;
3095;SDS011;1558;42.700;23.360;2023-05-13T06:06:37;9.63;;;4.88;;
3095;SDS011;1558;42.700;23.360;2023-05-13T06:09:06;10.50;;;4.85;;
3095;SDS011;1558;42.700;23.360;2023-05-13T06:11:35;8.32;;;4.10;;
3095;SDS011;1558;42.700;23.360;2023-05-13T06:14:03;4.93;;;3.55;;
3095;SDS011;1558;42.700;23.360;2023-05-13T06:16:31;5.85;;;3.35;;
3095;SDS011;1558;42.700;23.360;2023-05-13T06:18:59;4.18;;;3.20;;
3095;SDS011;1558;42.700;23.360;2023-05-13T06:21:27;4.47;;;2.80;;
3095;SDS011;1558;42.700;23.360;2023-05-13T06:23:57;3.75;;;3.30;;
3095;SDS011;1558;42.700;23.360;2023-05-13T06:26:25;3.33;;;2.70;;
3095;SDS011;1558;42.700;23.360;2023-05-13T06:28:54;5.45;;;3.30;;
3095;SDS011;1558;42.700;23.360;2023-05-13T06:31:22;7.35;;;4.28;;
3095;SDS011;1558;42.700;23.360;2023-05-13T06:33:52;7.88;;;4.45;;
3095;SDS011;1558;42.700;23.360;2023-05-13T06:36:21;6.18;;;3.95;;
3095;SDS011;1558;42.700;23.360;2023-05-13T06:38:50;6.80;;;3.60;;
3095;SDS011;1558;42.700;23.360;2023-05-13T06:41:17;3.73;;;3.13;;
3095;SDS011;1558;42.700;23.360;2023-05-13T06:43:46;3.77;;;3.33;;
3095;SDS011;1558;42.700;23.360;2023-05-13T06:46:15;6.67;;;3.83;;
3095;SDS011;1558;42.700;23.360;2023-05-13T06:48:43;6.83;;;3.10;;
3095;SDS011;1558;42.700;23.360;2023-05-13T06:51:11;5.90;;;3.67;;
3095;SDS011;1558;42.700;23.360;2023-05-13T06:53:40;5.00;;;3.10;;
3095;SDS011;1558;42.700;23.360;2023-05-13T06:56:08;3.33;;;3.03;;
3095;SDS011;1558;42.700;23.360;2023-05-13T06:58:36;3.40;;;2.83;;
3095;SDS011;1558;42.700;23.360;2023-05-13T07:01:04;3.73;;;2.80;;
3095;SDS011;1558;42.700;23.360;2023-05-13T07:03:34;4.67;;;2.87;;
3095;SDS011;1558;42.700;23.360;2023-05-13T07:06:03;3.13;;;2.83;;
3095;SDS011;1558;42.700;23.360;2023-05-13T07:08:31;3.40;;;3.10;;
3095;SDS011;1558;42.700;23.360;2023-05-13T07:10:59;3.50;;;3.00;;
3095;SDS011;1558;42.700;23.360;2023-05-13T07:13:27;3.63;;;2.70;;
3095;SDS011;1558;42.700;23.360;2023-05-13T07:15:56;7.22;;;4.95;;
3095;SDS011;1558;42.700;23.360;2023-05-13T07:18:24;4.97;;;3.67;;
3095;SDS011;1558;42.700;23.360;2023-05-13T07:20:53;4.97;;;3.75;;
3095;SDS011;1558;42.700;23.360;2023-05-13T07:23:22;6.50;;;3.83;;
3095;SDS011;1558;42.700;23.360;2023-05-13T07:25:50;6.55;;;3.00;;
3095;SDS011;1558;42.700;23.360;2023-05-13T07:28:18;7.95;;;4.20;;
3095;SDS011;1558;42.700;23.360;2023-05-13T07:30:46;6.28;;;3.65;;
3095;SDS011;1558;42.700;23.360;2023-05-13T07:33:14;6.40;;;4.22;;
3095;SDS011;1558;42.700;23.360;2023-05-13T07:35:42;6.63;;;3.60;;
3095;SDS011;1558;42.700;23.360;2023-05-13T07:38:12;5.93;;;4.05;;
3095;SDS011;1558;42.700;23.360;2023-05-13T07:40:40;5.50;;;4.00;;
3095;SDS011;1558;42.700;23.360;2023-05-13T07:43:08;5.75;;;4.50;;
3095;SDS011;1558;42.700;23.360;2023-05-13T07:45:37;6.30;;;4.70;;
3095;SDS011;1558;42.700;23.360;2023-05-13T07:48:05;6.03;;;4.97;;
3095;SDS011;1558;42.700;23.360;2023-05-13T07:50:35;5.18;;;4.70;;
3095;SDS011;1558;42.700;23.360;2023-05-13T07:53:03;8.45;;;5.57;;
3095;SDS011;1558;42.700;23.360;2023-05-13T07:55:33;6.20;;;5.70;;
3095;SDS011;1558;42.700;23.360;2023-05-13T07:58:01;4.60;;;4.20;;
3095;SDS011;1558;42.700;23.360;2023-05-13T08:00:29;6.80;;;5.68;;
3095;SDS011;1558;42.700;23.360;2023-05-13T08:02:57;7.07;;;6.38;;
3095;SDS011;1558;42.700;23.360;2023-05-13T08:05:25;8.00;;;7.18;;
3095;SDS011;1558;42.700;23.360;2023-05-13T08:07:53;9.90;;;8.13;;
3095;SDS011;1558;42.700;23.360;2023-05-13T08:10:21;6.90;;;6.20;;
3095;SDS011;1558;42.700;23.360;2023-05-13T08:12:51;8.70;;;5.43;;
3095;SDS011;1558;42.700;23.360;2023-05-13T08:15:23;6.78;;;5.53;;
3095;SDS011;1558;42.700;23.360;2023-05-13T08:17:51;6.15;;;5.55;;
3095;SDS011;1558;42.700;23.360;2023-05-13T08:20:20;8.05;;;7.00;;
3095;SDS011;1558;42.700;23.360;2023-05-13T08:22:55;5.97;;;5.45;;
3095;SDS011;1558;42.700;23.360;2023-05-13T08:25:23;6.75;;;6.05;;
3095;SDS011;1558;42.700;23.360;2023-05-13T08:27:53;5.85;;;5.40;;
3095;SDS011;1558;42.700;23.360;2023-05-13T08:30:21;6.80;;;6.10;;
3095;SDS011;1558;42.700;23.360;2023-05-13T08:32:49;7.50;;;6.20;;
3095;SDS011;1558;42.700;23.360;2023-05-13T08:35:18;6.50;;;5.88;;
3095;SDS011;1558;42.700;23.360;2023-05-13T08:37:47;8.50;;;7.70;;
3095;SDS011;1558;42.700;23.360;2023-05-13T08:40:15;8.48;;;7.57;;
3095;SDS011;1558;42.700;23.360;2023-05-13T08:42:44;7.10;;;6.40;;
3095;SDS011;1558;42.700;23.360;2023-05-13T08:45:16;8.80;;;7.38;;
3095;SDS011;1558;42.700;23.360;2023-05-13T08:47:49;8.00;;;7.15;;
3095;SDS011;1558;42.700;23.360;2023-05-13T08:50:19;9.25;;;8.32;;
3095;SDS011;1558;42.700;23.360;2023-05-13T08:52:48;7.88;;;7.00;;
3095;SDS011;1558;42.700;23.360;2023-05-13T08:55:17;8.02;;;7.22;;
3095;SDS011;1558;42.700;23.360;2023-05-13T08:57:47;8.40;;;7.60;;
3095;SDS011;1558;42.700;23.360;2023-05-13T09:00:16;7.43;;;6.75;;
3095;SDS011;1558;42.700;23.360;2023-05-13T09:02:47;10.13;;;7.97;;
3095;SDS011;1558;42.700;23.360;2023-05-13T09:05:16;9.80;;;7.03;;
3095;SDS011;1558;42.700;23.360;2023-05-13T09:07:45;9.95;;;7.82;;
3095;SDS011;1558;42.700;23.360;2023-05-13T09:10:13;7.90;;;7.15;;
3095;SDS011;1558;42.700;23.360;2023-05-13T09:12:45;8.38;;;7.32;;
3095;SDS011;1558;42.700;23.360;2023-05-13T09:15:16;8.23;;;7.43;;
3095;SDS011;1558;42.700;23.360;2023-05-13T09:17:47;8.05;;;7.35;;
3095;SDS011;1558;42.700;23.360;2023-05-13T09:20:18;8.02;;;7.32;;
3095;SDS011;1558;42.700;23.360;2023-05-13T09:22:47;7.28;;;6.68;;
3095;SDS011;1558;42.700;23.360;2023-05-13T09:25:17;7.40;;;6.70;;
3095;SDS011;1558;42.700;23.360;2023-05-13T09:27:47;7.82;;;6.97;;
3095;SDS011;1558;42.700;23.360;2023-05-13T09:30:19;7.65;;;6.95;;
3095;SDS011;1558;42.700;23.360;2023-05-13T09:33:02;7.38;;;6.68;;
3095;SDS011;1558;42.700;23.360;2023-05-13T09:35:33;7.78;;;7.07;;
3095;SDS011;1558;42.700;23.360;2023-05-13T09:38:10;7.43;;;6.70;;
3095;SDS011;1558;42.700;23.360;2023-05-13T09:40:48;6.25;;;5.65;;
3095;SDS011;1558;42.700;23.360;2023-05-13T09:43:17;6.30;;;5.60;;
3095;SDS011;1558;42.700;23.360;2023-05-13T09:45:50;6.60;;;6.00;;
3095;SDS011;1558;42.700;23.360;2023-05-13T09:48:19;6.28;;;5.78;;
3095;SDS011;1558;42.700;23.360;2023-05-13T09:50:48;7.45;;;6.68;;
3095;SDS011;1558;42.700;23.360;2023-05-13T09:53:17;7.10;;;6.40;;
3095;SDS011;1558;42.700;23.360;2023-05-13T09:55:47;6.50;;;5.90;;
3095;SDS011;1558;42.700;23.360;2023-05-13T09:58:16;6.57;;;6.07;;
3095;SDS011;1558;42.700;23.360;2023-05-13T10:00:45;6.68;;;5.78;;
3095;SDS011;1558;42.700;23.360;2023-05-13T10:03:16;7.72;;;6.93;;
3095;SDS011;1558;42.700;23.360;2023-05-13T10:05:44;6.97;;;6.28;;
3095;SDS011;1558;42.700;23.360;2023-05-13T10:08:13;5.85;;;5.35;;
3095;SDS011;1558;42.700;23.360;2023-05-13T10:10:41;7.03;;;6.00;;
3095;SDS011;1558;42.700;23.360;2023-05-13T10:13:12;7.72;;;6.55;;
3095;SDS011;1558;42.700;23.360;2023-05-13T10:15:49;6.10;;;5.60;;
3095;SDS011;1558;42.700;23.360;2023-05-13T10:18:20;6.30;;;5.75;;
3095;SDS011;1558;42.700;23.360;2023-05-13T10:20:50;7.60;;;6.70;;
3095;SDS011;1558;42.700;23.360;2023-05-13T10:23:19;6.28;;;5.75;;
3095;SDS011;1558;42.700;23.360;2023-05-13T10:25:50;6.43;;;5.40;;
3095;SDS011;1558;42.700;23.360;2023-05-13T10:28:20;7.45;;;5.57;;
3095;SDS011;1558;42.700;23.360;2023-05-13T10:30:48;7.25;;;6.55;;
3095;SDS011;1558;42.700;23.360;2023-05-13T10:33:18;11.38;;;7.00;;
3095;SDS011;1558;42.700;23.360;2023-05-13T10:35:51;5.40;;;4.90;;
3095;SDS011;1558;42.700;23.360;2023-05-13T10:38:41;5.88;;;4.90;;
3095;SDS011;1558;42.700;23.360;2023-05-13T10:44:33;6.30;;;5.70;;
3095;SDS011;1558;42.700;23.360;2023-05-13T10:47:02;7.25;;;6.60;;
3095;SDS011;1558;42.700;23.360;2023-05-13T10:49:33;7.82;;;7.22;;
3095;SDS011;1558;42.700;23.360;2023-05-13T10:52:04;7.70;;;6.88;;
3095;SDS011;1558;42.700;23.360;2023-05-13T10:54:35;7.28;;;6.68;;
3095;SDS011;1558;42.700;23.360;2023-05-13T10:57:05;6.97;;;6.45;;
3095;SDS011;1558;42.700;23.360;2023-05-13T10:59:34;7.82;;;7.03;;
3095;SDS011;1558;42.700;23.360;2023-05-13T11:02:18;6.90;;;6.30;;
3095;SDS011;1558;42.700;23.360;2023-05-13T11:05:00;6.95;;;6.45;;
3095;SDS011;1558;42.700;23.360;2023-05-13T11:07:28;7.32;;;6.30;;
3095;SDS011;1558;42.700;23.360;2023-05-13T11:09:56;7.75;;;7.03;;
3095;SDS011;1558;42.700;23.360;2023-05-13T11:12:26;8.77;;;7.88;;
3095;SDS011;1558;42.700;23.360;2023-05-13T11:14:54;9.13;;;8.23;;
3095;SDS011;1558;42.700;23.360;2023-05-13T11:17:22;10.88;;;9.18;;
3095;SDS011;1558;42.700;23.360;2023-05-13T11:19:51;7.63;;;6.93;;
3095;SDS011;1558;42.700;23.360;2023-05-13T11:22:21;8.02;;;7.32;;
3095;SDS011;1558;42.700;23.360;2023-05-13T11:25:02;7.53;;;6.93;;
3095;SDS011;1558;42.700;23.360;2023-05-13T11:27:37;7.53;;;6.70;;
3095;SDS011;1558;42.700;23.360;2023-05-13T11:30:06;7.65;;;7.05;;
3095;SDS011;1558;42.700;23.360;2023-05-13T11:32:52;7.63;;;6.93;;
3095;SDS011;1558;42.700;23.360;2023-05-13T11:35:22;7.03;;;6.32;;
3095;SDS011;1558;42.700;23.360;2023-05-13T11:37:54;6.90;;;6.30;;
3095;SDS011;1558;42.700;23.360;2023-05-13T11:40:26;7.40;;;6.72;;
3095;SDS011;1558;42.700;23.360;2023-05-13T11:42:55;8.20;;;7.57;;
3095;SDS011;1558;42.700;23.360;2023-05-13T11:45:25;8.00;;;7.40;;
3095;SDS011;1558;42.700;23.360;2023-05-13T11:47:54;7.45;;;6.85;;
3095;SDS011;1558;42.700;23.360;2023-05-13T11:50:24;7.38;;;6.65;;
3095;SDS011;1558;42.700;23.360;2023-05-13T11:52:54;7.75;;;6.70;;
3095;SDS011;1558;42.700;23.360;2023-05-13T11:55:23;7.38;;;6.78;;
3095;SDS011;1558;42.700;23.360;2023-05-13T11:57:52;8.02;;;7.28;;
3095;SDS011;1558;42.700;23.360;2023-05-13T12:00:24;7.03;;;6.47;;
3095;SDS011;1558;42.700;23.360;2023-05-13T12:02:52;7.60;;;6.85;;
3095;SDS011;1558;42.700;23.360;2023-05-13T12:05:22;7.15;;;6.35;;
3095;SDS011;1558;42.700;23.360;2023-05-13T12:07:51;6.22;;;5.65;;
3095;SDS011;1558;42.700;23.360;2023-05-13T12:10:24;6.70;;;6.00;;
3095;SDS011;1558;42.700;23.360;2023-05-13T12:12:52;6.30;;;5.80;;
3095;SDS011;1558;42.700;23.360;2023-05-13T12:15:20;6.75;;;6.25;;
3095;SDS011;1558;42.700;23.360;2023-05-13T12:17:49;7.07;;;6.43;;
3095;SDS011;1558;42.700;23.360;2023-05-13T12:20:18;7.15;;;6.40;;
3095;SDS011;1558;42.700;23.360;2023-05-13T12:22:48;8.93;;;7.53;;
3095;SDS011;1558;42.700;23.360;2023-05-13T12:25:36;9.02;;;8.13;;
3095;SDS011;1558;42.700;23.360;2023-05-13T12:28:12;8.25;;;7.00;;
3095;SDS011;1558;42.700;23.360;2023-05-13T12:30:45;8.85;;;8.05;;
3095;SDS011;1558;42.700;23.360;2023-05-13T12:33:18;7.38;;;6.68;;
3095;SDS011;1558;42.700;23.360;2023-05-13T12:35:48;7.57;;;6.13;;
3095;SDS011;1558;42.700;23.360;2023-05-13T12:38:17;7.15;;;6.55;;
3095;SDS011;1558;42.700;23.360;2023-05-13T12:40:48;6.28;;;5.70;;
3095;SDS011;1558;42.700;23.360;2023-05-13T12:43:18;6.40;;;5.70;;
3095;SDS011;1558;42.700;23.360;2023-05-13T12:45:47;5.95;;;5.40;;
3095;SDS011;1558;42.700;23.360;2023-05-13T12:48:23;6.57;;;5.97;;
3095;SDS011;1558;42.700;23.360;2023-05-13T12:50:52;6.15;;;5.65;;
3095;SDS011;1558;42.700;23.360;2023-05-13T12:53:21;6.28;;;5.60;;
3095;SDS011;1558;42.700;23.360;2023-05-13T12:55:51;5.60;;;5.05;;
3095;SDS011;1558;42.700;23.360;2023-05-13T12:58:19;6.15;;;5.65;;
3095;SDS011;1558;42.700;23.360;2023-05-13T13:00:47;5.90;;;5.35;;
3095;SDS011;1558;42.700;23.360;2023-05-13T13:03:15;7.68;;;5.40;;
3095;SDS011;1558;42.700;23.360;2023-05-13T13:05:43;5.70;;;5.20;;
3095;SDS011;1558;42.700;23.360;2023-05-13T13:08:12;5.47;;;4.72;;
3095;SDS011;1558;42.700;23.360;2023-05-13T13:10:40;5.35;;;4.88;;
3095;SDS011;1558;42.700;23.360;2023-05-13T13:13:09;7.22;;;5.47;;
3095;SDS011;1558;42.700;23.360;2023-05-13T13:15:37;6.10;;;5.60;;
3095;SDS011;1558;42.700;23.360;2023-05-13T13:18:05;6.50;;;5.80;;
3095;SDS011;1558;42.700;23.360;2023-05-13T13:20:34;6.40;;;5.78;;
3095;SDS011;1558;42.700;23.360;2023-05-13T13:23:02;6.82;;;5.57;;
3095;SDS011;1558;42.700;23.360;2023-05-13T13:25:31;6.85;;;5.30;;
3095;SDS011;1558;42.700;23.360;2023-05-13T13:27:59;6.10;;;5.50;;
3095;SDS011;1558;42.700;23.360;2023-05-13T13:30:29;5.82;;;5.32;;
3095;SDS011;1558;42.700;23.360;2023-05-13T13:32:57;6.00;;;5.32;;
3095;SDS011;1558;42.700;23.360;2023-05-13T13:35:25;6.68;;;5.60;;
3095;SDS011;1558;42.700;23.360;2023-05-13T13:37:53;6.20;;;5.70;;
3095;SDS011;1558;42.700;23.360;2023-05-13T13:40:22;8.50;;;7.15;;
3095;SDS011;1558;42.700;23.360;2023-05-13T13:42:50;6.78;;;5.50;;
3095;SDS011;1558;42.700;23.360;2023-05-13T13:45:18;5.72;;;5.32;;
3095;SDS011;1558;42.700;23.360;2023-05-13T13:47:50;6.28;;;5.68;;
3095;SDS011;1558;42.700;23.360;2023-05-13T13:50:18;6.38;;;5.88;;
3095;SDS011;1558;42.700;23.360;2023-05-13T13:52:47;7.57;;;6.35;;
3095;SDS011;1558;42.700;23.360;2023-05-13T13:55:17;6.40;;;5.80;;
3095;SDS011;1558;42.700;23.360;2023-05-13T13:57:46;8.43;;;6.13;;
3095;SDS011;1558;42.700;23.360;2023-05-13T14:00:14;6.72;;;5.10;;
3095;SDS011;1558;42.700;23.360;2023-05-13T14:02:43;5.80;;;5.20;;
3095;SDS011;1558;42.700;23.360;2023-05-13T14:05:12;6.82;;;6.22;;
3095;SDS011;1558;42.700;23.360;2023-05-13T14:07:41;7.15;;;5.90;;
3095;SDS011;1558;42.700;23.360;2023-05-13T14:10:09;6.88;;;6.10;;
3095;SDS011;1558;42.700;23.360;2023-05-13T14:12:37;7.90;;;7.20;;
3095;SDS011;1558;42.700;23.360;2023-05-13T14:15:06;5.63;;;5.13;;
3095;SDS011;1558;42.700;23.360;2023-05-13T14:17:34;5.47;;;4.97;;
3095;SDS011;1558;42.700;23.360;2023-05-13T14:20:03;7.60;;;5.18;;
3095;SDS011;1558;42.700;23.360;2023-05-13T14:22:33;7.45;;;6.18;;
3095;SDS011;1558;42.700;23.360;2023-05-13T14:25:01;5.90;;;5.03;;
3095;SDS011;1558;42.700;23.360;2023-05-13T14:27:29;7.90;;;5.10;;
3095;SDS011;1558;42.700;23.360;2023-05-13T14:29:59;4.90;;;4.50;;
3095;SDS011;1558;42.700;23.360;2023-05-13T14:32:30;5.32;;;4.82;;
3095;SDS011;1558;42.700;23.360;2023-05-13T14:34:58;6.00;;;5.35;;
3095;SDS011;1558;42.700;23.360;2023-05-13T14:37:26;6.47;;;5.07;;
3095;SDS011;1558;42.700;23.360;2023-05-13T14:39:55;6.60;;;5.53;;
3095;SDS011;1558;42.700;23.360;2023-05-13T14:42:23;6.55;;;5.60;;
3095;SDS011;1558;42.700;23.360;2023-05-13T14:44:51;6.30;;;5.70;;
3095;SDS011;1558;42.700;23.360;2023-05-13T14:47:19;6.45;;;5.78;;
3095;SDS011;1558;42.700;23.360;2023-05-13T14:49:47;6.32;;;5.10;;
3095;SDS011;1558;42.700;23.360;2023-05-13T14:52:15;6.00;;;5.35;;
3095;SDS011;1558;42.700;23.360;2023-05-13T14:54:43;6.93;;;5.90;;
3095;SDS011;1558;42.700;23.360;2023-05-13T14:57:13;7.43;;;4.45;;
3095;SDS011;1558;42.700;23.360;2023-05-13T14:59:41;5.45;;;4.82;;
3095;SDS011;1558;42.700;23.360;2023-05-13T15:02:09;5.28;;;4.78;;
3095;SDS011;1558;42.700;23.360;2023-05-13T15:04:39;6.55;;;4.45;;
3095;SDS011;1558;42.700;23.360;2023-05-13T15:07:07;5.63;;;5.10;;
3095;SDS011;1558;42.700;23.360;2023-05-13T15:09:35;5.43;;;4.22;;
3095;SDS011;1558;42.700;23.360;2023-05-13T15:12:03;4.72;;;4.20;;
3095;SDS011;1558;42.700;23.360;2023-05-13T15:14:33;5.57;;;4.90;;
3095;SDS011;1558;42.700;23.360;2023-05-13T15:17:02;7.22;;;5.68;;